Terre Haute International Hulman Field
KHUF : now visible

Airfield :











YOU CAN JOIN US ON...

 
LOGIN :

Register | Disclaimer

   EN    FR    IT 

 









Legend :    VFR   Marginal VFR   IFR   Intensive IFR   Very Intensive IFR
Visi :
Ceiling :
>= 8 km
>= 3000ft
5 to 8 km
1000 to 3000 ft
1500m to 5 km
500 to 1000 ft
800 to 1500m
200 to 500 ft
< 800m
< 200 ft
Symbols :   Thunderstorms  Fog  Heavy snow  Heavy precipitations  Wind > 20 kt







- Airport Elevation : 589 ft
- IATA code : HUF


KHUF - Terre Haute International Hulman Field

CURRENT METAR :
  • 261453Z 30012G24KT 10SM FEW023 14/08 A2982 RMK AO2 SLP096 T01390078 51012

EXPIRED METARs :
  • 261353Z 29011G19KT 10SM SCT018 13/09 A2980 RMK AO2 SLP091 T01280089
  • 261337Z 31009KT 10SM BKN016 12/09 A2981 RMK AO2 T01170089
  • 261324Z 30012G20KT 10SM BKN014 12/09 A2981 RMK AO2 T01170089
  • 261304Z 31012G19KT 10SM BKN015 BKN036 11/09 A2980 RMK AO2 T01110089
  • 261253Z 31013G20KT 10SM BKN013 OVC035 11/08 A2980 RMK AO2 SLP091 T01110083

TAF KHUF
Valid from the 26 at 13:00 until the 27 at 12:00 UTC


261256Z 2613/2712 31010G21KT P6SM BKN014 BKN019
FM270000 30012KT P6SM SKC
FM270300 29006KT P6SM SKC
FM271100 00000KT P6SM SCT120
KZID FIR / North America



MET'MAP, your aeronautical weather chart ! - Copyright ORBIFLY December 2007 - Disclaimer

ORBIFLY MET'MAP TEAM :

Programming & Development : Alexandra Zaïnal
Concept & Development : Baudouin d'Aumeries
Co-Development & Prog : Marc-Olivier Méhu
Technical & hardware support : Manuel Goepfert

Contact : metmap@orbifly.com




SOURCES & CREDITS :

   NOAA       Earth
Advisory